Westview, KY (40178)

6:44 AM CDT on August 25, 2016 (GMT -0500)
Eveleigh Road | | Change Station

Elev 670 ft 37.58 °N, 86.34 °W | Updated 2 seconds ago

Clear
Clear
74.5 °F
Feels Like 71 °F
N
3.1
Wind Variable Wind from SSW
Gusts 3.1 mph

Today
High -- | Low -- °F
--% Chance of Precip.
Yesterday
High -- | Low -- °F
Precip. -- in
Pressure 30.10 in
Visibility 10.0 miles
Clouds Clear
Heat Index 71 °F
Dew Point 74 °F
Humidity 99%
Rainfall 0.00 in
Snow Depth Not available.
6:10 AM 7:24 PM
Last Quarter, 46% visible
METAR KFTK 251058Z AUTO 19005KT 10SM CLR 23/22 A3011 RMK AO2 SLP192 T02300223
Pressure 30.10 in
Visibility 10.0 miles
Clouds Clear
Heat Index 71 °F
Dew Point 74 °F
Humidity 99%
Rainfall 0.00 in
Snow Depth Not available.
6:10 AM 7:24 PM
Last Quarter, 46% visible
METAR KFTK 251058Z AUTO 19005KT 10SM CLR 23/22 A3011 RMK AO2 SLP192 T02300223

10-Day Weather Forecast

Almanac

Astronomy

Aug. 25, 2016 Rise Set
Actual Time
Civil Twilight
Nautical Twilight
Astronomical Twilight
Moon
Length of Visible Light
Length of Day
Tomorrow will be .
, % of the Moon is Illuminated

Today's Extremes

State Highs State Lows

Community

WunderPhotos

Upload Photos

1,934,821 photos uploaded!

WunderBlog® & News

Nearby

Air Quality

  Air Quality AQ Index Pollutant
Not available.

Snow Depth

Station Depth Elevation

Earthquake Activity

City Distance Mag. Time & Date
Minimum magnitude displayed is 2.5.

Coastal Water Temperatures

Place Temperature

Stations

Nearby Weather Stations

Station Location Temp. Windchill Dew Point Humidity Wind Precip. Elev Updated Type
                   

Watches & Warnings

There are currently no watches in effect.